sensor_id;sensor_type;location;lat;lon;timestamp;P1;durP1;ratioP1;P2;durP2;ratioP2
24617;SDS011;12762;51.730;5.356;2023-03-25T00:01:33;6.70;;;1.17;;
24617;SDS011;12762;51.730;5.356;2023-03-25T00:04:00;6.67;;;1.27;;
24617;SDS011;12762;51.730;5.356;2023-03-25T00:06:30;10.03;;;1.37;;
24617;SDS011;12762;51.730;5.356;2023-03-25T00:08:59;6.90;;;1.40;;
24617;SDS011;12762;51.730;5.356;2023-03-25T00:11:28;8.60;;;1.70;;
24617;SDS011;12762;51.730;5.356;2023-03-25T00:13:55;7.10;;;1.83;;
24617;SDS011;12762;51.730;5.356;2023-03-25T00:16:23;6.63;;;1.20;;
24617;SDS011;12762;51.730;5.356;2023-03-25T00:18:53;10.27;;;1.43;;
24617;SDS011;12762;51.730;5.356;2023-03-25T00:21:20;5.07;;;1.50;;
24617;SDS011;12762;51.730;5.356;2023-03-25T00:23:48;4.83;;;1.43;;
24617;SDS011;12762;51.730;5.356;2023-03-25T00:26:15;7.73;;;1.70;;
24617;SDS011;12762;51.730;5.356;2023-03-25T00:28:42;6.33;;;1.23;;
24617;SDS011;12762;51.730;5.356;2023-03-25T00:31:12;10.13;;;1.67;;
24617;SDS011;12762;51.730;5.356;2023-03-25T00:33:43;5.17;;;1.00;;
24617;SDS011;12762;51.730;5.356;2023-03-25T00:36:12;4.80;;;1.23;;
24617;SDS011;12762;51.730;5.356;2023-03-25T00:38:41;6.20;;;1.37;;
24617;SDS011;12762;51.730;5.356;2023-03-25T00:41:12;5.53;;;1.10;;
24617;SDS011;12762;51.730;5.356;2023-03-25T00:43:48;5.43;;;1.10;;
24617;SDS011;12762;51.730;5.356;2023-03-25T00:46:17;5.73;;;1.20;;
24617;SDS011;12762;51.730;5.356;2023-03-25T00:48:44;8.00;;;1.37;;
24617;SDS011;12762;51.730;5.356;2023-03-25T00:51:14;6.57;;;1.40;;
24617;SDS011;12762;51.730;5.356;2023-03-25T00:53:44;4.57;;;1.10;;
24617;SDS011;12762;51.730;5.356;2023-03-25T00:56:11;4.30;;;1.00;;
24617;SDS011;12762;51.730;5.356;2023-03-25T00:58:38;10.53;;;1.67;;
24617;SDS011;12762;51.730;5.356;2023-03-25T01:01:09;7.67;;;1.63;;
24617;SDS011;12762;51.730;5.356;2023-03-25T01:03:41;9.87;;;1.83;;
24617;SDS011;12762;51.730;5.356;2023-03-25T01:06:10;8.17;;;1.27;;
24617;SDS011;12762;51.730;5.356;2023-03-25T01:08:44;8.70;;;1.77;;
24617;SDS011;12762;51.730;5.356;2023-03-25T01:11:21;9.50;;;1.77;;
24617;SDS011;12762;51.730;5.356;2023-03-25T01:13:50;10.60;;;1.50;;
24617;SDS011;12762;51.730;5.356;2023-03-25T01:16:17;10.20;;;1.60;;
24617;SDS011;12762;51.730;5.356;2023-03-25T01:18:44;6.03;;;1.57;;
24617;SDS011;12762;51.730;5.356;2023-03-25T01:21:14;5.83;;;1.03;;
24617;SDS011;12762;51.730;5.356;2023-03-25T01:23:41;8.30;;;1.57;;
24617;SDS011;12762;51.730;5.356;2023-03-25T01:26:08;4.70;;;1.03;;
24617;SDS011;12762;51.730;5.356;2023-03-25T01:28:34;7.03;;;1.20;;
24617;SDS011;12762;51.730;5.356;2023-03-25T01:31:02;6.23;;;1.20;;
24617;SDS011;12762;51.730;5.356;2023-03-25T01:33:30;8.33;;;1.57;;
24617;SDS011;12762;51.730;5.356;2023-03-25T01:35:58;5.80;;;1.30;;
24617;SDS011;12762;51.730;5.356;2023-03-25T01:38:25;7.63;;;1.50;;
24617;SDS011;12762;51.730;5.356;2023-03-25T01:40:52;4.87;;;1.43;;
24617;SDS011;12762;51.730;5.356;2023-03-25T01:43:25;6.67;;;1.40;;
24617;SDS011;12762;51.730;5.356;2023-03-25T01:45:52;4.30;;;1.27;;
24617;SDS011;12762;51.730;5.356;2023-03-25T01:48:23;9.00;;;1.63;;
24617;SDS011;12762;51.730;5.356;2023-03-25T01:50:55;10.13;;;1.70;;
24617;SDS011;12762;51.730;5.356;2023-03-25T01:53:27;7.00;;;1.70;;
24617;SDS011;12762;51.730;5.356;2023-03-25T01:55:58;7.13;;;1.60;;
24617;SDS011;12762;51.730;5.356;2023-03-25T01:58:27;6.13;;;1.53;;
24617;SDS011;12762;51.730;5.356;2023-03-25T02:00:56;7.43;;;1.67;;
24617;SDS011;12762;51.730;5.356;2023-03-25T02:03:24;4.87;;;1.57;;
24617;SDS011;12762;51.730;5.356;2023-03-25T02:05:55;3.20;;;1.37;;
24617;SDS011;12762;51.730;5.356;2023-03-25T02:08:37;5.20;;;1.63;;
24617;SDS011;12762;51.730;5.356;2023-03-25T02:11:07;4.83;;;1.40;;
24617;SDS011;12762;51.730;5.356;2023-03-25T02:13:35;4.77;;;1.27;;
24617;SDS011;12762;51.730;5.356;2023-03-25T02:22:29;5.67;;;1.37;;
24617;SDS011;12762;51.730;5.356;2023-03-25T02:28:01;4.97;;;1.57;;
24617;SDS011;12762;51.730;5.356;2023-03-25T02:39:21;7.07;;;1.83;;
24617;SDS011;12762;51.730;5.356;2023-03-25T02:41:58;5.77;;;1.57;;
24617;SDS011;12762;51.730;5.356;2023-03-25T02:47:13;7.47;;;2.00;;
24617;SDS011;12762;51.730;5.356;2023-03-25T02:49:55;5.47;;;1.70;;
24617;SDS011;12762;51.730;5.356;2023-03-25T02:52:27;10.50;;;1.90;;
24617;SDS011;12762;51.730;5.356;2023-03-25T02:54:58;6.23;;;1.60;;
24617;SDS011;12762;51.730;5.356;2023-03-25T02:57:30;5.33;;;1.70;;
24617;SDS011;12762;51.730;5.356;2023-03-25T03:00:00;6.93;;;1.93;;
24617;SDS011;12762;51.730;5.356;2023-03-25T03:02:35;4.73;;;1.77;;
24617;SDS011;12762;51.730;5.356;2023-03-25T03:05:18;5.17;;;1.73;;
24617;SDS011;12762;51.730;5.356;2023-03-25T03:07:52;7.43;;;1.73;;
24617;SDS011;12762;51.730;5.356;2023-03-25T03:10:43;4.40;;;1.83;;
24617;SDS011;12762;51.730;5.356;2023-03-25T03:25:01;8.13;;;1.53;;
24617;SDS011;12762;51.730;5.356;2023-03-25T03:30:09;8.73;;;2.20;;
24617;SDS011;12762;51.730;5.356;2023-03-25T03:32:46;6.00;;;1.90;;
24617;SDS011;12762;51.730;5.356;2023-03-25T03:35:23;7.90;;;2.07;;
24617;SDS011;12762;51.730;5.356;2023-03-25T03:38:05;10.37;;;2.13;;
24617;SDS011;12762;51.730;5.356;2023-03-25T03:40:43;9.33;;;2.10;;
24617;SDS011;12762;51.730;5.356;2023-03-25T03:43:25;9.27;;;2.27;;
24617;SDS011;12762;51.730;5.356;2023-03-25T03:46:00;10.97;;;2.17;;
24617;SDS011;12762;51.730;5.356;2023-03-25T03:48:41;8.40;;;2.10;;
24617;SDS011;12762;51.730;5.356;2023-03-25T03:51:19;8.37;;;2.10;;
24617;SDS011;12762;51.730;5.356;2023-03-25T03:53:52;9.93;;;2.30;;
24617;SDS011;12762;51.730;5.356;2023-03-25T04:02:36;8.77;;;2.07;;
24617;SDS011;12762;51.730;5.356;2023-03-25T04:05:11;13.60;;;2.30;;
24617;SDS011;12762;51.730;5.356;2023-03-25T04:07:47;8.03;;;1.83;;
24617;SDS011;12762;51.730;5.356;2023-03-25T04:10:38;6.00;;;1.80;;
24617;SDS011;12762;51.730;5.356;2023-03-25T04:13:12;10.17;;;1.80;;
24617;SDS011;12762;51.730;5.356;2023-03-25T04:15:41;11.53;;;2.40;;
24617;SDS011;12762;51.730;5.356;2023-03-25T04:18:08;10.50;;;2.00;;
24617;SDS011;12762;51.730;5.356;2023-03-25T04:20:35;9.63;;;1.73;;
24617;SDS011;12762;51.730;5.356;2023-03-25T04:23:03;7.97;;;2.00;;
24617;SDS011;12762;51.730;5.356;2023-03-25T04:25:30;6.27;;;1.90;;
24617;SDS011;12762;51.730;5.356;2023-03-25T04:28:00;13.77;;;2.20;;
24617;SDS011;12762;51.730;5.356;2023-03-25T04:30:27;11.70;;;2.07;;
24617;SDS011;12762;51.730;5.356;2023-03-25T04:32:54;10.13;;;1.80;;
24617;SDS011;12762;51.730;5.356;2023-03-25T04:35:25;8.20;;;2.00;;
24617;SDS011;12762;51.730;5.356;2023-03-25T04:37:53;8.70;;;1.50;;
24617;SDS011;12762;51.730;5.356;2023-03-25T04:40:22;10.13;;;1.63;;
24617;SDS011;12762;51.730;5.356;2023-03-25T04:42:51;10.30;;;1.80;;
24617;SDS011;12762;51.730;5.356;2023-03-25T04:45:18;10.47;;;1.80;;
24617;SDS011;12762;51.730;5.356;2023-03-25T04:47:47;11.57;;;1.70;;
24617;SDS011;12762;51.730;5.356;2023-03-25T04:50:48;3.90;;;1.50;;
24617;SDS011;12762;51.730;5.356;2023-03-25T04:53:08;9.63;;;1.80;;
24617;SDS011;12762;51.730;5.356;2023-03-25T04:55:35;7.33;;;1.73;;
24617;SDS011;12762;51.730;5.356;2023-03-25T04:58:01;8.03;;;1.63;;
24617;SDS011;12762;51.730;5.356;2023-03-25T05:00:29;6.53;;;1.67;;
24617;SDS011;12762;51.730;5.356;2023-03-25T05:02:57;7.17;;;1.90;;
24617;SDS011;12762;51.730;5.356;2023-03-25T05:05:27;8.83;;;2.00;;
24617;SDS011;12762;51.730;5.356;2023-03-25T05:07:55;7.40;;;2.00;;
24617;SDS011;12762;51.730;5.356;2023-03-25T05:10:24;5.57;;;2.03;;
24617;SDS011;12762;51.730;5.356;2023-03-25T05:13:01;9.07;;;2.27;;
24617;SDS011;12762;51.730;5.356;2023-03-25T05:15:30;9.37;;;2.70;;
24617;SDS011;12762;51.730;5.356;2023-03-25T05:18:00;5.07;;;1.80;;
24617;SDS011;12762;51.730;5.356;2023-03-25T05:20:27;6.70;;;2.00;;
24617;SDS011;12762;51.730;5.356;2023-03-25T05:22:54;7.40;;;1.70;;
24617;SDS011;12762;51.730;5.356;2023-03-25T05:25:24;6.97;;;1.90;;
24617;SDS011;12762;51.730;5.356;2023-03-25T05:27:51;7.70;;;1.90;;
24617;SDS011;12762;51.730;5.356;2023-03-25T05:30:17;10.57;;;2.23;;
24617;SDS011;12762;51.730;5.356;2023-03-25T05:32:44;5.83;;;1.87;;
24617;SDS011;12762;51.730;5.356;2023-03-25T05:35:21;6.03;;;1.97;;
24617;SDS011;12762;51.730;5.356;2023-03-25T05:37:48;9.00;;;2.27;;
24617;SDS011;12762;51.730;5.356;2023-03-25T05:40:15;7.20;;;2.53;;
24617;SDS011;12762;51.730;5.356;2023-03-25T05:42:42;7.77;;;2.87;;
24617;SDS011;12762;51.730;5.356;2023-03-25T05:45:14;10.50;;;2.50;;
24617;SDS011;12762;51.730;5.356;2023-03-25T05:47:42;11.03;;;2.70;;
24617;SDS011;12762;51.730;5.356;2023-03-25T05:50:09;11.20;;;2.63;;
24617;SDS011;12762;51.730;5.356;2023-03-25T05:52:36;7.17;;;2.60;;
24617;SDS011;12762;51.730;5.356;2023-03-25T05:55:08;8.60;;;2.40;;
24617;SDS011;12762;51.730;5.356;2023-03-25T05:57:39;6.70;;;2.30;;
24617;SDS011;12762;51.730;5.356;2023-03-25T06:00:06;8.90;;;2.80;;
24617;SDS011;12762;51.730;5.356;2023-03-25T06:02:34;12.63;;;2.50;;
24617;SDS011;12762;51.730;5.356;2023-03-25T06:05:04;13.77;;;2.50;;
24617;SDS011;12762;51.730;5.356;2023-03-25T06:07:31;12.53;;;2.67;;
24617;SDS011;12762;51.730;5.356;2023-03-25T06:09:58;6.60;;;1.90;;
24617;SDS011;12762;51.730;5.356;2023-03-25T06:12:25;8.60;;;2.23;;
24617;SDS011;12762;51.730;5.356;2023-03-25T06:14:52;9.47;;;2.27;;
24617;SDS011;12762;51.730;5.356;2023-03-25T06:17:20;13.90;;;2.97;;
24617;SDS011;12762;51.730;5.356;2023-03-25T06:19:47;7.90;;;1.93;;
24617;SDS011;12762;51.730;5.356;2023-03-25T06:22:15;10.17;;;2.10;;
24617;SDS011;12762;51.730;5.356;2023-03-25T06:24:45;9.30;;;2.23;;
24617;SDS011;12762;51.730;5.356;2023-03-25T06:27:15;14.57;;;2.40;;
24617;SDS011;12762;51.730;5.356;2023-03-25T06:29:45;11.47;;;2.27;;
24617;SDS011;12762;51.730;5.356;2023-03-25T06:32:13;13.80;;;2.40;;
24617;SDS011;12762;51.730;5.356;2023-03-25T06:34:41;14.37;;;2.47;;
24617;SDS011;12762;51.730;5.356;2023-03-25T06:37:08;5.07;;;1.70;;
24617;SDS011;12762;51.730;5.356;2023-03-25T06:39:36;6.90;;;1.93;;
24617;SDS011;12762;51.730;5.356;2023-03-25T06:42:03;14.87;;;2.20;;
24617;SDS011;12762;51.730;5.356;2023-03-25T06:44:31;12.90;;;2.57;;
24617;SDS011;12762;51.730;5.356;2023-03-25T06:46:59;11.53;;;2.43;;
24617;SDS011;12762;51.730;5.356;2023-03-25T06:49:27;9.77;;;2.50;;
24617;SDS011;12762;51.730;5.356;2023-03-25T06:51:54;10.20;;;1.90;;
24617;SDS011;12762;51.730;5.356;2023-03-25T06:54:28;14.27;;;2.30;;
24617;SDS011;12762;51.730;5.356;2023-03-25T06:56:58;11.80;;;2.60;;
24617;SDS011;12762;51.730;5.356;2023-03-25T06:59:24;12.30;;;2.83;;
24617;SDS011;12762;51.730;5.356;2023-03-25T07:01:51;12.40;;;2.60;;
24617;SDS011;12762;51.730;5.356;2023-03-25T07:04:18;14.90;;;2.83;;
24617;SDS011;12762;51.730;5.356;2023-03-25T07:06:45;12.93;;;2.83;;
24617;SDS011;12762;51.730;5.356;2023-03-25T07:09:12;12.77;;;2.33;;
24617;SDS011;12762;51.730;5.356;2023-03-25T07:11:39;7.73;;;2.30;;
24617;SDS011;12762;51.730;5.356;2023-03-25T07:14:05;11.20;;;2.90;;
24617;SDS011;12762;51.730;5.356;2023-03-25T07:16:32;11.33;;;2.47;;
24617;SDS011;12762;51.730;5.356;2023-03-25T07:18:59;14.20;;;2.50;;
24617;SDS011;12762;51.730;5.356;2023-03-25T07:21:29;14.77;;;3.13;;
24617;SDS011;12762;51.730;5.356;2023-03-25T07:23:59;7.97;;;2.30;;
24617;SDS011;12762;51.730;5.356;2023-03-25T07:26:26;10.43;;;2.43;;
24617;SDS011;12762;51.730;5.356;2023-03-25T07:28:52;9.00;;;2.50;;
24617;SDS011;12762;51.730;5.356;2023-03-25T07:31:19;8.90;;;2.43;;
24617;SDS011;12762;51.730;5.356;2023-03-25T07:33:46;14.67;;;2.03;;
24617;SDS011;12762;51.730;5.356;2023-03-25T07:36:13;9.97;;;2.10;;
24617;SDS011;12762;51.730;5.356;2023-03-25T07:38:40;10.53;;;2.07;;
24617;SDS011;12762;51.730;5.356;2023-03-25T07:41:08;19.47;;;2.83;;
24617;SDS011;12762;51.730;5.356;2023-03-25T07:43:38;17.00;;;3.07;;
24617;SDS011;12762;51.730;5.356;2023-03-25T07:46:05;14.20;;;2.50;;
24617;SDS011;12762;51.730;5.356;2023-03-25T07:48:32;11.30;;;2.33;;
24617;SDS011;12762;51.730;5.356;2023-03-25T07:50:59;13.53;;;2.40;;
24617;SDS011;12762;51.730;5.356;2023-03-25T07:53:26;10.77;;;2.67;;
24617;SDS011;12762;51.730;5.356;2023-03-25T07:55:53;11.87;;;2.47;;
24617;SDS011;12762;51.730;5.356;2023-03-25T07:58:19;10.43;;;2.60;;
24617;SDS011;12762;51.730;5.356;2023-03-25T08:00:46;11.43;;;2.30;;
24617;SDS011;12762;51.730;5.356;2023-03-25T08:03:13;11.50;;;1.90;;
24617;SDS011;12762;51.730;5.356;2023-03-25T08:05:44;15.07;;;2.30;;
24617;SDS011;12762;51.730;5.356;2023-03-25T08:08:12;13.40;;;2.30;;
24617;SDS011;12762;51.730;5.356;2023-03-25T08:10:41;16.57;;;2.33;;
24617;SDS011;12762;51.730;5.356;2023-03-25T08:13:09;15.50;;;2.33;;
24617;SDS011;12762;51.730;5.356;2023-03-25T08:15:37;10.27;;;2.23;;
24617;SDS011;12762;51.730;5.356;2023-03-25T08:18:04;13.73;;;2.57;;
24617;SDS011;12762;51.730;5.356;2023-03-25T08:20:33;11.53;;;1.50;;
24617;SDS011;12762;51.730;5.356;2023-03-25T08:23:01;12.47;;;2.63;;
24617;SDS011;12762;51.730;5.356;2023-03-25T08:25:28;12.17;;;1.90;;
24617;SDS011;12762;51.730;5.356;2023-03-25T08:27:56;13.87;;;2.20;;
24617;SDS011;12762;51.730;5.356;2023-03-25T08:30:25;14.17;;;2.00;;
24617;SDS011;12762;51.730;5.356;2023-03-25T08:32:52;11.40;;;1.90;;
24617;SDS011;12762;51.730;5.356;2023-03-25T08:35:20;10.07;;;2.33;;
24617;SDS011;12762;51.730;5.356;2023-03-25T08:37:49;10.80;;;2.13;;
24617;SDS011;12762;51.730;5.356;2023-03-25T08:40:16;14.53;;;1.80;;
24617;SDS011;12762;51.730;5.356;2023-03-25T08:42:43;9.73;;;2.37;;
24617;SDS011;12762;51.730;5.356;2023-03-25T08:45:11;12.77;;;2.70;;
24617;SDS011;12762;51.730;5.356;2023-03-25T08:47:42;14.67;;;2.63;;
24617;SDS011;12762;51.730;5.356;2023-03-25T08:50:11;9.27;;;2.00;;
24617;SDS011;12762;51.730;5.356;2023-03-25T08:52:38;14.63;;;2.50;;
24617;SDS011;12762;51.730;5.356;2023-03-25T08:55:06;18.20;;;3.03;;
24617;SDS011;12762;51.730;5.356;2023-03-25T08:57:37;15.90;;;3.20;;
24617;SDS011;12762;51.730;5.356;2023-03-25T09:00:04;12.90;;;2.63;;
24617;SDS011;12762;51.730;5.356;2023-03-25T09:02:42;16.37;;;2.77;;
24617;SDS011;12762;51.730;5.356;2023-03-25T09:05:09;20.07;;;3.23;;
24617;SDS011;12762;51.730;5.356;2023-03-25T09:07:37;14.33;;;2.60;;
24617;SDS011;12762;51.730;5.356;2023-03-25T09:10:05;18.23;;;3.00;;
24617;SDS011;12762;51.730;5.356;2023-03-25T09:12:33;13.83;;;2.97;;
24617;SDS011;12762;51.730;5.356;2023-03-25T09:15:00;16.30;;;2.77;;
24617;SDS011;12762;51.730;5.356;2023-03-25T09:17:27;14.47;;;3.00;;
24617;SDS011;12762;51.730;5.356;2023-03-25T09:19:54;20.73;;;2.97;;
24617;SDS011;12762;51.730;5.356;2023-03-25T09:22:24;15.30;;;2.80;;
24617;SDS011;12762;51.730;5.356;2023-03-25T09:24:51;13.47;;;2.90;;
24617;SDS011;12762;51.730;5.356;2023-03-25T09:27:18;18.47;;;4.00;;
24617;SDS011;12762;51.730;5.356;2023-03-25T09:29:44;18.97;;;3.00;;
24617;SDS011;12762;51.730;5.356;2023-03-25T09:32:14;15.87;;;3.10;;
24617;SDS011;12762;51.730;5.356;2023-03-25T09:34:41;16.50;;;3.60;;
24617;SDS011;12762;51.730;5.356;2023-03-25T09:37:09;14.70;;;2.90;;
24617;SDS011;12762;51.730;5.356;2023-03-25T09:39:36;16.50;;;2.90;;
24617;SDS011;12762;51.730;5.356;2023-03-25T09:42:12;12.93;;;2.50;;
24617;SDS011;12762;51.730;5.356;2023-03-25T09:47:51;18.17;;;3.17;;
24617;SDS011;12762;51.730;5.356;2023-03-25T09:50:23;21.50;;;3.53;;
24617;SDS011;12762;51.730;5.356;2023-03-25T09:53:02;17.17;;;3.03;;
24617;SDS011;12762;51.730;5.356;2023-03-25T09:55:41;19.27;;;3.13;;
24617;SDS011;12762;51.730;5.356;2023-03-25T10:07:02;18.97;;;2.93;;
24617;SDS011;12762;51.730;5.356;2023-03-25T10:23:15;15.23;;;3.10;;
24617;SDS011;12762;51.730;5.356;2023-03-25T10:25:58;14.00;;;2.63;;
24617;SDS011;12762;51.730;5.356;2023-03-25T10:28:33;16.40;;;2.97;;
24617;SDS011;12762;51.730;5.356;2023-03-25T10:31:04;12.87;;;2.53;;
24617;SDS011;12762;51.730;5.356;2023-03-25T10:33:35;14.77;;;2.60;;
24617;SDS011;12762;51.730;5.356;2023-03-25T10:36:05;19.70;;;2.73;;
24617;SDS011;12762;51.730;5.356;2023-03-25T10:38:37;18.37;;;2.77;;
24617;SDS011;12762;51.730;5.356;2023-03-25T10:41:26;15.10;;;2.77;;
24617;SDS011;12762;51.730;5.356;2023-03-25T10:44:09;15.10;;;2.60;;
24617;SDS011;12762;51.730;5.356;2023-03-25T10:46:48;16.43;;;2.60;;
24617;SDS011;12762;51.730;5.356;2023-03-25T10:49:20;12.43;;;2.47;;
24617;SDS011;12762;51.730;5.356;2023-03-25T10:51:51;18.10;;;3.20;;
24617;SDS011;12762;51.730;5.356;2023-03-25T10:54:20;16.00;;;2.93;;
24617;SDS011;12762;51.730;5.356;2023-03-25T10:56:49;15.80;;;3.40;;
24617;SDS011;12762;51.730;5.356;2023-03-25T10:59:22;10.40;;;3.00;;
24617;SDS011;12762;51.730;5.356;2023-03-25T11:02:11;11.77;;;2.30;;
24617;SDS011;12762;51.730;5.356;2023-03-25T11:05:02;15.17;;;2.50;;
24617;SDS011;12762;51.730;5.356;2023-03-25T11:07:32;16.93;;;2.50;;
24617;SDS011;12762;51.730;5.356;2023-03-25T11:12:54;13.47;;;2.03;;
24617;SDS011;12762;51.730;5.356;2023-03-25T11:15:24;7.50;;;1.87;;
24617;SDS011;12762;51.730;5.356;2023-03-25T11:18:07;8.50;;;1.63;;
24617;SDS011;12762;51.730;5.356;2023-03-25T11:20:59;10.93;;;1.70;;
24617;SDS011;12762;51.730;5.356;2023-03-25T11:26:07;7.37;;;1.80;;
24617;SDS011;12762;51.730;5.356;2023-03-25T11:29:06;10.73;;;2.03;;
24617;SDS011;12762;51.730;5.356;2023-03-25T11:31:37;8.03;;;1.83;;
24617;SDS011;12762;51.730;5.356;2023-03-25T11:36:38;10.80;;;1.70;;
24617;SDS011;12762;51.730;5.356;2023-03-25T11:39:18;10.43;;;3.03;;
24617;SDS011;12762;51.730;5.356;2023-03-25T11:42:21;6.10;;;1.60;;
24617;SDS011;12762;51.730;5.356;2023-03-25T11:44:54;13.60;;;1.70;;
24617;SDS011;12762;51.730;5.356;2023-03-25T11:47:25;8.87;;;1.70;;
24617;SDS011;12762;51.730;5.356;2023-03-25T11:49:56;10.73;;;1.50;;
24617;SDS011;12762;51.730;5.356;2023-03-25T11:52:24;9.90;;;1.83;;
24617;SDS011;12762;51.730;5.356;2023-03-25T11:54:56;5.60;;;1.63;;
24617;SDS011;12762;51.730;5.356;2023-03-25T11:57:26;13.53;;;1.93;;
24617;SDS011;12762;51.730;5.356;2023-03-25T12:00:00;10.77;;;1.93;;
24617;SDS011;12762;51.730;5.356;2023-03-25T12:03:02;10.30;;;2.20;;
24617;SDS011;12762;51.730;5.356;2023-03-25T12:05:30;12.43;;;1.90;;
24617;SDS011;12762;51.730;5.356;2023-03-25T12:08:12;10.50;;;1.93;;
24617;SDS011;12762;51.730;5.356;2023-03-25T12:10:54;10.80;;;1.60;;
24617;SDS011;12762;51.730;5.356;2023-03-25T12:14:14;11.63;;;2.00;;
24617;SDS011;12762;51.730;5.356;2023-03-25T12:19:18;10.27;;;1.80;;
24617;SDS011;12762;51.730;5.356;2023-03-25T12:25:20;12.93;;;1.63;;
24617;SDS011;12762;51.730;5.356;2023-03-25T12:36:28;11.63;;;1.80;;
24617;SDS011;12762;51.730;5.356;2023-03-25T12:39:20;11.10;;;1.53;;
24617;SDS011;12762;51.730;5.356;2023-03-25T12:42:14;10.17;;;1.53;;
24617;SDS011;12762;51.730;5.356;2023-03-25T12:45:12;13.07;;;1.60;;
24617;SDS011;12762;51.730;5.356;2023-03-25T12:53:45;11.07;;;1.83;;
24617;SDS011;12762;51.730;5.356;2023-03-25T13:04:16;13.40;;;2.03;;
24617;SDS011;12762;51.730;5.356;2023-03-25T13:07:05;10.17;;;1.63;;
24617;SDS011;12762;51.730;5.356;2023-03-25T13:12:47;13.10;;;1.77;;
24617;SDS011;12762;51.730;5.356;2023-03-25T13:18:03;9.67;;;1.73;;
24617;SDS011;12762;51.730;5.356;2023-03-25T13:20:47;17.90;;;2.37;;
24617;SDS011;12762;51.730;5.356;2023-03-25T13:23:39;9.73;;;1.43;;
24617;SDS011;12762;51.730;5.356;2023-03-25T13:26:12;11.10;;;1.53;;
24617;SDS011;12762;51.730;5.356;2023-03-25T13:28:47;10.60;;;1.60;;
24617;SDS011;12762;51.730;5.356;2023-03-25T13:31:36;15.80;;;2.43;;
24617;SDS011;12762;51.730;5.356;2023-03-25T13:39:23;8.73;;;1.60;;
24617;SDS011;12762;51.730;5.356;2023-03-25T13:42:01;11.73;;;1.80;;
24617;SDS011;12762;51.730;5.356;2023-03-25T13:44:38;8.93;;;1.60;;
24617;SDS011;12762;51.730;5.356;2023-03-25T13:49:59;8.03;;;1.97;;
24617;SDS011;12762;51.730;5.356;2023-03-25T13:52:35;9.23;;;1.57;;
24617;SDS011;12762;51.730;5.356;2023-03-25T14:07:02;12.43;;;2.37;;
24617;SDS011;12762;51.730;5.356;2023-03-25T14:09:45;6.47;;;1.40;;
24617;SDS011;12762;51.730;5.356;2023-03-25T14:14:53;13.00;;;1.67;;
24617;SDS011;12762;51.730;5.356;2023-03-25T14:17:23;8.90;;;1.60;;
24617;SDS011;12762;51.730;5.356;2023-03-25T14:19:55;8.20;;;1.50;;
24617;SDS011;12762;51.730;5.356;2023-03-25T14:22:28;10.83;;;1.63;;
24617;SDS011;12762;51.730;5.356;2023-03-25T14:24:58;10.83;;;1.40;;
24617;SDS011;12762;51.730;5.356;2023-03-25T14:27:27;6.73;;;1.70;;
24617;SDS011;12762;51.730;5.356;2023-03-25T14:30:02;11.47;;;1.77;;
24617;SDS011;12762;51.730;5.356;2023-03-25T14:38:02;6.47;;;1.40;;
24617;SDS011;12762;51.730;5.356;2023-03-25T14:40:45;9.50;;;1.30;;
24617;SDS011;12762;51.730;5.356;2023-03-25T14:43:32;6.47;;;1.30;;
24617;SDS011;12762;51.730;5.356;2023-03-25T14:48:47;5.57;;;1.30;;
24617;SDS011;12762;51.730;5.356;2023-03-25T14:56:59;7.60;;;1.43;;
24617;SDS011;12762;51.730;5.356;2023-03-25T14:59:42;10.50;;;1.40;;
24617;SDS011;12762;51.730;5.356;2023-03-25T15:02:20;7.93;;;1.50;;
24617;SDS011;12762;51.730;5.356;2023-03-25T15:05:31;9.30;;;1.30;;
24617;SDS011;12762;51.730;5.356;2023-03-25T15:07:59;10.17;;;1.23;;
24617;SDS011;12762;51.730;5.356;2023-03-25T15:10:44;9.97;;;1.60;;
24617;SDS011;12762;51.730;5.356;2023-03-25T15:15:58;14.07;;;2.20;;
24617;SDS011;12762;51.730;5.356;2023-03-25T15:26:26;11.70;;;1.93;;
24617;SDS011;12762;51.730;5.356;2023-03-25T15:37:11;10.37;;;2.00;;
24617;SDS011;12762;51.730;5.356;2023-03-25T15:40:22;5.80;;;1.40;;
24617;SDS011;12762;51.730;5.356;2023-03-25T15:49:33;11.90;;;1.97;;
24617;SDS011;12762;51.730;5.356;2023-03-25T15:57:00;10.93;;;1.93;;
24617;SDS011;12762;51.730;5.356;2023-03-25T16:02:31;13.97;;;1.77;;
24617;SDS011;12762;51.730;5.356;2023-03-25T16:05:04;7.37;;;1.53;;
24617;SDS011;12762;51.730;5.356;2023-03-25T16:07:32;8.30;;;1.50;;
24617;SDS011;12762;51.730;5.356;2023-03-25T16:10:14;11.03;;;1.67;;
24617;SDS011;12762;51.730;5.356;2023-03-25T16:13:05;11.37;;;1.80;;
24617;SDS011;12762;51.730;5.356;2023-03-25T16:15:37;11.37;;;2.13;;
24617;SDS011;12762;51.730;5.356;2023-03-25T16:18:06;17.47;;;2.67;;
24617;SDS011;12762;51.730;5.356;2023-03-25T16:20:35;9.70;;;1.70;;
24617;SDS011;12762;51.730;5.356;2023-03-25T16:23:03;9.13;;;1.67;;
24617;SDS011;12762;51.730;5.356;2023-03-25T16:25:33;11.03;;;2.20;;
24617;SDS011;12762;51.730;5.356;2023-03-25T16:28:06;13.37;;;2.10;;
24617;SDS011;12762;51.730;5.356;2023-03-25T16:30:40;11.77;;;1.37;;
24617;SDS011;12762;51.730;5.356;2023-03-25T16:35:37;10.87;;;1.70;;
24617;SDS011;12762;51.730;5.356;2023-03-25T16:38:04;17.87;;;2.17;;
24617;SDS011;12762;51.730;5.356;2023-03-25T16:40:35;13.07;;;1.90;;
24617;SDS011;12762;51.730;5.356;2023-03-25T16:43:10;10.77;;;1.77;;
24617;SDS011;12762;51.730;5.356;2023-03-25T16:45:38;14.27;;;2.30;;
24617;SDS011;12762;51.730;5.356;2023-03-25T16:48:09;10.87;;;2.00;;
24617;SDS011;12762;51.730;5.356;2023-03-25T16:50:46;16.37;;;2.43;;
24617;SDS011;12762;51.730;5.356;2023-03-25T16:53:15;7.67;;;1.83;;
24617;SDS011;12762;51.730;5.356;2023-03-25T16:58:23;8.87;;;1.93;;
24617;SDS011;12762;51.730;5.356;2023-03-25T17:00:54;8.37;;;1.80;;
24617;SDS011;12762;51.730;5.356;2023-03-25T17:09:25;15.50;;;2.43;;
24617;SDS011;12762;51.730;5.356;2023-03-25T17:12:00;12.00;;;2.00;;
24617;SDS011;12762;51.730;5.356;2023-03-25T17:14:31;17.30;;;2.50;;
24617;SDS011;12762;51.730;5.356;2023-03-25T17:20:03;11.40;;;2.00;;
24617;SDS011;12762;51.730;5.356;2023-03-25T17:22:35;7.23;;;2.00;;
24617;SDS011;12762;51.730;5.356;2023-03-25T17:25:13;13.10;;;2.57;;
24617;SDS011;12762;51.730;5.356;2023-03-25T17:27:54;12.50;;;2.27;;
24617;SDS011;12762;51.730;5.356;2023-03-25T17:33:09;11.10;;;2.50;;
24617;SDS011;12762;51.730;5.356;2023-03-25T17:35:55;19.20;;;2.60;;
24617;SDS011;12762;51.730;5.356;2023-03-25T17:38:27;18.47;;;2.30;;
24617;SDS011;12762;51.730;5.356;2023-03-25T17:41:07;10.97;;;2.07;;
24617;SDS011;12762;51.730;5.356;2023-03-25T17:43:42;13.53;;;2.23;;
24617;SDS011;12762;51.730;5.356;2023-03-25T17:46:20;11.37;;;2.37;;
24617;SDS011;12762;51.730;5.356;2023-03-25T17:48:52;10.93;;;2.10;;
24617;SDS011;12762;51.730;5.356;2023-03-25T17:51:25;14.40;;;2.30;;
24617;SDS011;12762;51.730;5.356;2023-03-25T17:53:54;13.10;;;1.80;;
24617;SDS011;12762;51.730;5.356;2023-03-25T17:56:25;12.10;;;2.13;;
24617;SDS011;12762;51.730;5.356;2023-03-25T17:58:56;12.30;;;2.33;;
24617;SDS011;12762;51.730;5.356;2023-03-25T18:01:28;13.47;;;2.33;;
24617;SDS011;12762;51.730;5.356;2023-03-25T18:03:56;11.77;;;2.00;;
24617;SDS011;12762;51.730;5.356;2023-03-25T18:06:23;14.23;;;2.57;;
24617;SDS011;12762;51.730;5.356;2023-03-25T18:08:50;14.57;;;2.93;;
24617;SDS011;12762;51.730;5.356;2023-03-25T18:11:17;13.30;;;2.60;;
24617;SDS011;12762;51.730;5.356;2023-03-25T18:13:44;15.37;;;2.50;;
24617;SDS011;12762;51.730;5.356;2023-03-25T18:16:17;14.40;;;2.43;;
24617;SDS011;12762;51.730;5.356;2023-03-25T18:18:46;14.07;;;2.10;;
24617;SDS011;12762;51.730;5.356;2023-03-25T18:21:14;18.83;;;2.93;;
24617;SDS011;12762;51.730;5.356;2023-03-25T18:23:42;17.47;;;2.33;;
24617;SDS011;12762;51.730;5.356;2023-03-25T18:26:14;14.67;;;2.53;;